Time;durP1;ratioP1;P1;durP2;ratioP2;P2;SDS_P1;SDS_P2;PMS_P1;PMS_P2;Temp;Humidity;BMP_temperature;BMP_pressure;BME280_temperature;BME280_humidity;BME280_pressure;Samples;Min_cycle;Max_cycle;Signal;HPM_P1;HPM_P2
2024/01/30 00:02:21;;;;;;;0.40;0.40;;;;;;;;;;6222038;28;20021;-83
2024/01/30 00:05:21;;;;;;;0.37;0.37;;;;;;;;;;6224599;28;20509;-83
2024/01/30 00:08:22;;;;;;;0.30;0.30;;;;;;;;;;6207082;28;20026;-83
2024/01/30 00:11:22;;;;;;;0.30;0.30;;;;;;;;;;6217946;28;20050;-83
2024/01/30 00:14:23;;;;;;;0.30;0.30;;;;;;;;;;6208226;28;20527;-83
2024/01/30 00:17:25;;;;;;;0.30;0.30;;;;;;;;;;6215151;28;20029;-84
2024/01/30 00:20:25;;;;;;;0.40;0.40;;;;;;;;;;6225382;28;20381;-84
2024/01/30 00:23:25;;;;;;;0.37;0.37;;;;;;;;;;6212375;28;20037;-84
2024/01/30 00:26:25;;;;;;;0.40;0.40;;;;;;;;;;6204384;28;20084;-83
2024/01/30 00:29:30;;;;;;;0.30;0.30;;;;;;;;;;6214586;28;20133;-84
2024/01/30 00:32:30;;;;;;;0.38;0.38;;;;;;;;;;6218851;28;20464;-84
2024/01/30 00:35:30;;;;;;;0.40;0.40;;;;;;;;;;6230495;28;20030;-84
2024/01/30 00:38:30;;;;;;;0.30;0.30;;;;;;;;;;6217605;28;20026;-84
2024/01/30 00:41:31;;;;;;;0.40;0.40;;;;;;;;;;6223968;28;20021;-85
2024/01/30 00:44:31;;;;;;;0.40;0.40;;;;;;;;;;6220885;28;20025;-84
2024/01/30 00:47:32;;;;;;;0.30;0.30;;;;;;;;;;6205873;28;20023;-84
2024/01/30 00:50:33;;;;;;;0.40;0.40;;;;;;;;;;6212432;28;20555;-85
2024/01/30 00:53:33;;;;;;;0.30;0.30;;;;;;;;;;6206009;28;20040;-85
2024/01/30 00:56:33;;;;;;;0.30;0.30;;;;;;;;;;6198218;28;20033;-85
2024/01/30 00:59:34;;;;;;;0.40;0.40;;;;;;;;;;6200315;28;20036;-86
2024/01/30 01:02:39;;;;;;;0.30;0.30;;;;;;;;;;6204773;28;20380;-85
2024/01/30 01:05:39;;;;;;;0.30;0.30;;;;;;;;;;6225527;28;20045;-85
2024/01/30 01:08:39;;;;;;;0.30;0.30;;;;;;;;;;6184591;28;20034;-85
2024/01/30 01:11:40;;;;;;;0.40;0.40;;;;;;;;;;6242773;28;20023;-85
2024/01/30 01:14:40;;;;;;;0.40;0.40;;;;;;;;;;6215315;28;20089;-85
2024/01/30 01:17:42;;;;;;;0.40;0.40;;;;;;;;;;6217802;28;20029;-85
2024/01/30 01:20:42;;;;;;;;;;;;;;;;;;6216941;28;20453;-85
2024/01/30 01:23:42;;;;;;;0.30;0.30;;;;;;;;;;6225993;28;19910;-86
2024/01/30 01:26:42;;;;;;;0.30;0.30;;;;;;;;;;6222453;28;20022;-86
2024/01/30 01:29:43;;;;;;;0.30;0.30;;;;;;;;;;6223190;28;20014;-86
2024/01/30 01:32:50;;;;;;;0.40;0.40;;;;;;;;;;6204599;28;20117;-86
2024/01/30 01:35:50;;;;;;;0.38;0.38;;;;;;;;;;6223221;28;20068;-86
2024/01/30 01:38:50;;;;;;;0.40;0.40;;;;;;;;;;6237594;28;20029;-86
2024/01/30 01:41:51;;;;;;;0.40;0.40;;;;;;;;;;6204420;28;20033;-86
2024/01/30 01:44:51;;;;;;;0.30;0.30;;;;;;;;;;6211113;28;20037;-86
2024/01/30 01:47:52;;;;;;;0.40;0.40;;;;;;;;;;6235159;28;20451;-86
2024/01/30 01:50:52;;;;;;;0.30;0.30;;;;;;;;;;6238606;28;20040;-86
2024/01/30 01:53:53;;;;;;;0.30;0.30;;;;;;;;;;6223165;28;20021;-86
2024/01/30 01:56:54;;;;;;;0.40;0.40;;;;;;;;;;6206933;28;20030;-86
2024/01/30 01:59:54;;;;;;;0.30;0.30;;;;;;;;;;6204230;28;20033;-87
2024/01/30 02:02:54;;;;;;;0.40;0.40;;;;;;;;;;6226374;28;20422;-87
2024/01/30 02:09:04;;;;;;;0.50;0.50;;;;;;;;;;6272661;22;20163;-76
2024/01/30 02:12:05;;;;;;;0.40;0.40;;;;;;;;;;6243940;28;20487;-78
2024/01/30 02:15:05;;;;;;;0.40;0.40;;;;;;;;;;6244575;28;20020;-79
2024/01/30 02:18:06;;;;;;;0.30;0.30;;;;;;;;;;6252633;28;20017;-87
2024/01/30 02:21:06;;;;;;;0.30;0.30;;;;;;;;;;6252071;28;20018;-87
2024/01/30 02:24:06;;;;;;;0.30;0.30;;;;;;;;;;6263733;28;20018;-85
2024/01/30 02:27:06;;;;;;;0.40;0.40;;;;;;;;;;6251160;28;20018;-87
2024/01/30 02:30:07;;;;;;;0.30;0.30;;;;;;;;;;6236559;28;20020;-86
2024/01/30 02:33:07;;;;;;;0.30;0.30;;;;;;;;;;6244015;28;20033;-87
2024/01/30 02:36:07;;;;;;;0.30;0.30;;;;;;;;;;6262071;28;20026;-86
2024/01/30 02:39:07;;;;;;;0.40;0.40;;;;;;;;;;6251749;28;20036;-86
2024/01/30 02:42:08;;;;;;;0.30;0.30;;;;;;;;;;6254680;28;20202;-87
2024/01/30 02:45:10;;;;;;;0.30;0.30;;;;;;;;;;6258576;28;20035;-86
2024/01/30 02:48:10;;;;;;;0.30;0.30;;;;;;;;;;6233332;28;20546;-87
2024/01/30 02:51:10;;;;;;;0.40;0.40;;;;;;;;;;6260648;28;20025;-86
2024/01/30 02:54:10;;;;;;;0.30;0.30;;;;;;;;;;6263318;28;20025;-87
2024/01/30 02:57:10;;;;;;;0.33;0.33;;;;;;;;;;6261551;28;20421;-86
2024/01/30 03:00:12;;;;;;;0.30;0.30;;;;;;;;;;6243590;28;20674;-86
2024/01/30 03:03:13;;;;;;;0.30;0.30;;;;;;;;;;6260380;28;20064;-86
2024/01/30 03:06:17;;;;;;;0.30;0.30;;;;;;;;;;6261550;28;20112;-85
2024/01/30 03:09:17;;;;;;;0.40;0.40;;;;;;;;;;6259749;28;20068;-86
2024/01/30 03:12:18;;;;;;;0.30;0.30;;;;;;;;;;6252790;28;20080;-88
2024/01/30 03:15:20;;;;;;;0.40;0.40;;;;;;;;;;6261990;28;20033;-86
2024/01/30 03:18:20;;;;;;;0.30;0.30;;;;;;;;;;6241278;28;20403;-87
2024/01/30 03:21:23;;;;;;;0.30;0.30;;;;;;;;;;6239338;28;20029;-87
2024/01/30 03:24:23;;;;;;;0.40;0.40;;;;;;;;;;6249992;28;20087;-86
2024/01/30 03:27:23;;;;;;;0.40;0.40;;;;;;;;;;6250884;28;20414;-74
2024/01/30 03:30:24;;;;;;;0.40;0.40;;;;;;;;;;6240829;28;20364;-76
2024/01/30 03:33:24;;;;;;;0.30;0.30;;;;;;;;;;6214784;28;20588;-74
2024/01/30 03:36:24;;;;;;;0.33;0.33;;;;;;;;;;6246427;28;20514;-85
2024/01/30 03:39:24;;;;;;;0.30;0.30;;;;;;;;;;6262849;28;20085;-86
2024/01/30 03:42:24;;;;;;;0.30;0.30;;;;;;;;;;6261078;28;20024;-85
2024/01/30 03:45:25;;;;;;;0.40;0.40;;;;;;;;;;6257859;28;20018;-86
2024/01/30 03:48:25;;;;;;;0.30;0.30;;;;;;;;;;6258014;28;20045;-86
2024/01/30 03:51:25;;;;;;;0.30;0.30;;;;;;;;;;6235539;28;20029;-86
2024/01/30 03:54:26;;;;;;;0.40;0.40;;;;;;;;;;6260282;28;20061;-86
2024/01/30 03:57:26;;;;;;;0.40;0.40;;;;;;;;;;6258330;28;20029;-86
2024/01/30 04:00:26;;;;;;;0.40;0.40;;;;;;;;;;6256551;28;20030;-87
2024/01/30 04:03:26;;;;;;;0.40;0.40;;;;;;;;;;6256685;28;20052;-87
2024/01/30 04:06:27;;;;;;;0.40;0.40;;;;;;;;;;6258541;28;20093;-86
2024/01/30 04:09:28;;;;;;;0.40;0.40;;;;;;;;;;6254739;28;20025;-86
2024/01/30 04:12:28;;;;;;;0.60;0.60;;;;;;;;;;6255048;28;20028;-86
2024/01/30 04:15:29;;;;;;;0.40;0.40;;;;;;;;;;6252803;28;20013;-86
2024/01/30 04:18:30;;;;;;;0.30;0.30;;;;;;;;;;6252708;28;20100;-86
2024/01/30 04:21:30;;;;;;;0.30;0.30;;;;;;;;;;6253026;28;20016;-86
2024/01/30 04:24:30;;;;;;;0.40;0.40;;;;;;;;;;6250738;28;20928;-86
2024/01/30 04:27:30;;;;;;;0.40;0.40;;;;;;;;;;6250169;28;20010;-86
2024/01/30 04:30:31;;;;;;;0.40;0.40;;;;;;;;;;6239074;28;20465;-86
2024/01/30 04:33:31;;;;;;;0.40;0.40;;;;;;;;;;6236259;28;20086;-86
2024/01/30 04:36:31;;;;;;;0.40;0.40;;;;;;;;;;6245921;28;20538;-87
2024/01/30 04:39:34;;;;;;;0.40;0.40;;;;;;;;;;6248459;28;20024;-87
2024/01/30 04:42:34;;;;;;;0.30;0.30;;;;;;;;;;6244226;28;20018;-87
2024/01/30 04:45:35;;;;;;;0.40;0.40;;;;;;;;;;6247955;28;20029;-76
2024/01/30 04:48:35;;;;;;;0.40;0.40;;;;;;;;;;6242017;28;20083;-75
2024/01/30 04:51:35;;;;;;;0.30;0.30;;;;;;;;;;6241737;28;20021;-75
2024/01/30 04:54:35;;;;;;;0.40;0.40;;;;;;;;;;6241282;28;20021;-75
2024/01/30 04:57:36;;;;;;;0.40;0.40;;;;;;;;;;6242218;28;20025;-75
2024/01/30 05:00:36;;;;;;;0.38;0.38;;;;;;;;;;6242081;28;20021;-75
2024/01/30 05:03:37;;;;;;;0.30;0.30;;;;;;;;;;6241659;28;20510;-75
2024/01/30 05:06:37;;;;;;;0.40;0.40;;;;;;;;;;6241859;28;20104;-75
2024/01/30 05:09:37;;;;;;;0.30;0.30;;;;;;;;;;6241824;28;20021;-75
2024/01/30 05:12:38;;;;;;;0.30;0.30;;;;;;;;;;6241648;28;20463;-75
2024/01/30 05:15:38;;;;;;;0.40;0.40;;;;;;;;;;6223602;28;20028;-75
2024/01/30 05:18:38;;;;;;;0.40;0.40;;;;;;;;;;6240760;28;20064;-75
2024/01/30 05:21:39;;;;;;;0.40;0.40;;;;;;;;;;6240529;28;20136;-75
2024/01/30 05:24:39;;;;;;;0.30;0.30;;;;;;;;;;6241390;28;20052;-75
2024/01/30 05:27:39;;;;;;;0.33;0.33;;;;;;;;;;6240862;28;20116;-75
2024/01/30 05:30:39;;;;;;;0.30;0.30;;;;;;;;;;6237556;28;20026;-75
2024/01/30 05:33:40;;;;;;;0.30;0.30;;;;;;;;;;6239793;28;20029;-75
2024/01/30 05:36:40;;;;;;;0.30;0.30;;;;;;;;;;6241326;28;20052;-75
2024/01/30 05:39:40;;;;;;;0.40;0.40;;;;;;;;;;6241351;28;20029;-75
2024/01/30 05:42:41;;;;;;;0.50;0.50;;;;;;;;;;6241309;28;20450;-75
2024/01/30 05:45:41;;;;;;;0.30;0.30;;;;;;;;;;6223266;28;20484;-75
2024/01/30 05:48:41;;;;;;;0.30;0.30;;;;;;;;;;6241842;28;20049;-75
2024/01/30 05:51:42;;;;;;;0.30;0.30;;;;;;;;;;6241492;28;20160;-75
2024/01/30 05:54:42;;;;;;;0.30;0.30;;;;;;;;;;6241494;28;20076;-75
2024/01/30 05:57:42;;;;;;;0.30;0.30;;;;;;;;;;6241239;28;20025;-85
2024/01/30 06:00:43;;;;;;;0.30;0.30;;;;;;;;;;6241879;28;20017;-85
2024/01/30 06:03:43;;;;;;;0.30;0.30;;;;;;;;;;6240961;28;20068;-85
2024/01/30 06:06:44;;;;;;;0.40;0.40;;;;;;;;;;6226508;28;20044;-76
2024/01/30 06:09:45;;;;;;;0.30;0.30;;;;;;;;;;6245443;28;20495;-75
2024/01/30 06:12:45;;;;;;;0.40;0.40;;;;;;;;;;6245245;28;20025;-75
2024/01/30 06:15:46;;;;;;;0.40;0.40;;;;;;;;;;6226596;28;20032;-75
2024/01/30 06:18:46;;;;;;;0.30;0.30;;;;;;;;;;6245580;28;20013;-75
2024/01/30 06:21:47;;;;;;;0.30;0.30;;;;;;;;;;6241913;28;20041;-76
2024/01/30 06:24:49;;;;;;;0.30;0.30;;;;;;;;;;6243146;28;20025;-75
2024/01/30 06:27:50;;;;;;;0.30;0.30;;;;;;;;;;6226989;28;20482;-75
2024/01/30 06:30:50;;;;;;;0.47;0.47;;;;;;;;;;6243957;28;20374;-75
2024/01/30 06:33:50;;;;;;;0.30;0.30;;;;;;;;;;6246314;28;20203;-75
2024/01/30 06:36:51;;;;;;;0.40;0.40;;;;;;;;;;6244870;28;20124;-75
2024/01/30 06:39:52;;;;;;;0.40;0.40;;;;;;;;;;6245006;28;20331;-75
2024/01/30 06:42:52;;;;;;;0.40;0.40;;;;;;;;;;6244364;28;20538;-75
2024/01/30 06:45:52;;;;;;;0.40;0.40;;;;;;;;;;6247053;28;20049;-76
2024/01/30 06:48:53;;;;;;;0.30;0.30;;;;;;;;;;6233928;28;20021;-75
2024/01/30 06:51:53;;;;;;;0.30;0.30;;;;;;;;;;6245253;28;20082;-76
2024/01/30 06:54:54;;;;;;;0.30;0.30;;;;;;;;;;6244613;28;20014;-76
2024/01/30 06:57:54;;;;;;;0.30;0.30;;;;;;;;;;6244702;28;20084;-76
2024/01/30 07:00:55;;;;;;;0.30;0.30;;;;;;;;;;6244111;28;20033;-76
2024/01/30 07:03:55;;;;;;;0.30;0.30;;;;;;;;;;6241295;28;20122;-76
2024/01/30 07:06:57;;;;;;;0.30;0.30;;;;;;;;;;6243259;28;20037;-75
2024/01/30 07:09:57;;;;;;;0.30;0.30;;;;;;;;;;6238672;28;20025;-75
2024/01/30 07:12:58;;;;;;;0.20;0.20;;;;;;;;;;6244472;28;20049;-75
2024/01/30 07:15:58;;;;;;;0.30;0.30;;;;;;;;;;6244635;28;20021;-75
2024/01/30 07:18:58;;;;;;;0.20;0.20;;;;;;;;;;6243927;28;20031;-76
2024/01/30 07:21:58;;;;;;;0.30;0.30;;;;;;;;;;6241714;28;20033;-78
2024/01/30 07:24:59;;;;;;;0.20;0.20;;;;;;;;;;6243589;28;20040;-79
2024/01/30 07:28:02;;;;;;;0.20;0.20;;;;;;;;;;6232348;28;20045;-84
2024/01/30 07:31:03;;;;;;;0.20;0.20;;;;;;;;;;6243759;28;20017;-83
2024/01/30 07:34:03;;;;;;;0.20;0.20;;;;;;;;;;6243661;28;20360;-83
2024/01/30 07:37:08;;;;;;;0.20;0.20;;;;;;;;;;6236627;28;20022;-85
2024/01/30 07:40:08;;;;;;;0.20;0.20;;;;;;;;;;6265022;28;20029;-85
2024/01/30 07:43:10;;;;;;;0.20;0.20;;;;;;;;;;6248784;28;20605;-85
2024/01/30 07:46:10;;;;;;;0.20;0.20;;;;;;;;;;6224806;28;20032;-84
2024/01/30 07:49:10;;;;;;;0.20;0.20;;;;;;;;;;6242166;28;20029;-83
2024/01/30 07:52:10;;;;;;;0.20;0.20;;;;;;;;;;6242889;28;20075;-83
2024/01/30 07:55:12;;;;;;;0.20;0.20;;;;;;;;;;6243415;28;20025;-83
2024/01/30 07:58:12;;;;;;;0.20;0.20;;;;;;;;;;6243506;28;20053;-83
2024/01/30 08:01:17;;;;;;;0.20;0.20;;;;;;;;;;6243499;28;20028;-83
2024/01/30 08:04:18;;;;;;;0.20;0.20;;;;;;;;;;6248142;28;20033;-83
2024/01/30 08:07:18;;;;;;;0.20;0.20;;;;;;;;;;6240650;28;20049;-83
2024/01/30 08:10:18;;;;;;;0.20;0.20;;;;;;;;;;6247406;28;20085;-82
2024/01/30 08:13:19;;;;;;;0.20;0.20;;;;;;;;;;6241928;28;20095;-83
2024/01/30 08:16:19;;;;;;;0.20;0.20;;;;;;;;;;6247530;28;20060;-82
2024/01/30 08:19:19;;;;;;;0.20;0.20;;;;;;;;;;6237058;28;20025;-81
2024/01/30 08:22:19;;;;;;;0.20;0.20;;;;;;;;;;6225111;28;20036;-81
2024/01/30 08:25:20;;;;;;;0.10;0.10;;;;;;;;;;6241555;28;20056;-81
2024/01/30 08:28:20;;;;;;;0.20;0.20;;;;;;;;;;6240666;28;20148;-77
2024/01/30 08:31:21;;;;;;;0.20;0.20;;;;;;;;;;6239616;28;20049;-76
2024/01/30 08:34:21;;;;;;;0.20;0.20;;;;;;;;;;6240728;28;20076;-77
2024/01/30 08:37:22;;;;;;;0.17;0.17;;;;;;;;;;6239968;28;20053;-76
2024/01/30 08:40:22;;;;;;;0.20;0.20;;;;;;;;;;6226598;28;20033;-77
2024/01/30 08:43:22;;;;;;;0.20;0.20;;;;;;;;;;6241058;28;20431;-77
2024/01/30 08:46:22;;;;;;;0.20;0.20;;;;;;;;;;6240739;28;20049;-78
2024/01/30 08:49:22;;;;;;;0.20;0.20;;;;;;;;;;6240177;28;20022;-78
2024/01/30 08:52:23;;;;;;;0.20;0.20;;;;;;;;;;6241459;28;20583;-79
2024/01/30 08:55:23;;;;;;;0.20;0.20;;;;;;;;;;6241125;28;20032;-79
2024/01/30 08:58:23;;;;;;;0.20;0.20;;;;;;;;;;6240916;28;20083;-79
2024/01/30 09:01:24;;;;;;;0.20;0.20;;;;;;;;;;6240072;28;20029;-79
2024/01/30 09:04:25;;;;;;;0.20;0.20;;;;;;;;;;6239985;28;20108;-79
2024/01/30 09:07:25;;;;;;;0.20;0.20;;;;;;;;;;6239395;28;20581;-79
2024/01/30 09:10:25;;;;;;;0.20;0.20;;;;;;;;;;6240497;28;20033;-77
2024/01/30 09:13:26;;;;;;;0.20;0.20;;;;;;;;;;6239971;28;20071;-77
2024/01/30 09:16:27;;;;;;;0.20;0.20;;;;;;;;;;6240196;28;20453;-77
2024/01/30 09:19:27;;;;;;;0.20;0.20;;;;;;;;;;6240440;28;20144;-77
2024/01/30 09:22:27;;;;;;;0.20;0.20;;;;;;;;;;6239601;28;20029;-77
2024/01/30 09:25:27;;;;;;;0.10;0.10;;;;;;;;;;6238932;28;20041;-76
2024/01/30 09:28:28;;;;;;;0.20;0.20;;;;;;;;;;6217357;28;20018;-76
2024/01/30 09:31:28;;;;;;;0.20;0.20;;;;;;;;;;6240455;28;20087;-76
2024/01/30 09:34:29;;;;;;;0.20;0.20;;;;;;;;;;6222832;28;20127;-76
2024/01/30 09:37:29;;;;;;;0.20;0.20;;;;;;;;;;6240819;28;20033;-76
2024/01/30 09:40:29;;;;;;;0.20;0.20;;;;;;;;;;6224561;28;20060;-76
2024/01/30 09:43:32;;;;;;;0.20;0.20;;;;;;;;;;6228046;28;20373;-76
2024/01/30 09:46:33;;;;;;;0.20;0.20;;;;;;;;;;6246149;28;20080;-76
2024/01/30 09:49:33;;;;;;;0.20;0.20;;;;;;;;;;6245940;28;20021;-77
2024/01/30 09:52:34;;;;;;;0.20;0.20;;;;;;;;;;6246269;28;20022;-76
2024/01/30 09:55:36;;;;;;;0.20;0.20;;;;;;;;;;6246556;28;20045;-79
2024/01/30 09:58:36;;;;;;;0.10;0.10;;;;;;;;;;6245971;28;20022;-80
2024/01/30 10:01:37;;;;;;;0.20;0.20;;;;;;;;;;6226825;28;20464;-80
2024/01/30 10:04:37;;;;;;;0.20;0.20;;;;;;;;;;6245572;28;20022;-81
2024/01/30 10:07:37;;;;;;;0.10;0.10;;;;;;;;;;6245835;28;20081;-80
2024/01/30 10:10:38;;;;;;;0.20;0.20;;;;;;;;;;6245209;28;20021;-80
2024/01/30 10:13:39;;;;;;;0.20;0.20;;;;;;;;;;6245115;28;20057;-80
2024/01/30 10:16:39;;;;;;;0.20;0.20;;;;;;;;;;6250862;28;20021;-79
2024/01/30 10:19:39;;;;;;;0.20;0.20;;;;;;;;;;6245747;28;20025;-79
2024/01/30 10:22:42;;;;;;;0.20;0.20;;;;;;;;;;6244996;28;20032;-79
2024/01/30 10:25:42;;;;;;;0.20;0.20;;;;;;;;;;6245098;28;20025;-79
2024/01/30 10:28:43;;;;;;;0.20;0.20;;;;;;;;;;6245064;28;20640;-79
2024/01/30 10:31:43;;;;;;;0.20;0.20;;;;;;;;;;6245326;28;20156;-79
2024/01/30 10:34:43;;;;;;;0.10;0.10;;;;;;;;;;6245044;28;20021;-79
2024/01/30 10:37:44;;;;;;;0.20;0.20;;;;;;;;;;6236291;28;20464;-79
2024/01/30 10:40:45;;;;;;;0.20;0.20;;;;;;;;;;6239016;28;20025;-79
2024/01/30 10:43:50;;;;;;;0.10;0.10;;;;;;;;;;6244054;28;20021;-79
2024/01/30 10:46:56;;;;;;;0.20;0.20;;;;;;;;;;6227369;28;20029;-77
2024/01/30 10:49:57;;;;;;;0.20;0.20;;;;;;;;;;6244894;28;20024;-78
2024/01/30 10:52:58;;;;;;;0.20;0.20;;;;;;;;;;6243852;28;20408;-77
2024/01/30 10:55:59;;;;;;;0.20;0.20;;;;;;;;;;6244669;28;20021;-77
2024/01/30 10:58:59;;;;;;;0.10;0.10;;;;;;;;;;6226480;28;20476;-77
2024/01/30 11:02:00;;;;;;;0.20;0.20;;;;;;;;;;6244824;28;20038;-77
2024/01/30 11:05:00;;;;;;;0.20;0.20;;;;;;;;;;6226268;28;20026;-77
2024/01/30 11:08:10;;;;;;;0.10;0.10;;;;;;;;;;6244318;28;20100;-77
2024/01/30 11:11:10;;;;;;;0.15;0.15;;;;;;;;;;6241614;28;20476;-77
2024/01/30 11:14:11;;;;;;;0.10;0.10;;;;;;;;;;6250437;28;20103;-77
2024/01/30 11:17:12;;;;;;;0.10;0.10;;;;;;;;;;6245200;28;20078;-77
2024/01/30 11:20:25;;;;;;;0.10;0.10;;;;;;;;;;6244003;28;20376;-77
2024/01/30 11:23:26;;;;;;;0.10;0.10;;;;;;;;;;6243638;28;20060;-77
2024/01/30 11:26:30;;;;;;;0.10;0.10;;;;;;;;;;6243233;28;20071;-77
2024/01/30 11:29:34;;;;;;;0.20;0.20;;;;;;;;;;6244258;28;20179;-77
2024/01/30 11:32:35;;;;;;;0.10;0.10;;;;;;;;;;6243085;28;20071;-77
2024/01/30 11:35:36;;;;;;;0.10;0.10;;;;;;;;;;6243688;28;20486;-77
2024/01/30 11:38:37;;;;;;;0.10;0.10;;;;;;;;;;6234296;28;20087;-77
2024/01/30 11:41:38;;;;;;;0.10;0.10;;;;;;;;;;6243611;28;20073;-77
2024/01/30 11:44:38;;;;;;;0.10;0.10;;;;;;;;;;6239244;28;20078;-77
2024/01/30 11:47:38;;;;;;;0.10;0.10;;;;;;;;;;6246947;28;20026;-78
2024/01/30 11:50:39;;;;;;;0.10;0.10;;;;;;;;;;6243832;28;20021;-78
2024/01/30 11:53:41;;;;;;;0.10;0.10;;;;;;;;;;6243203;28;20034;-78
2024/01/30 11:56:41;;;;;;;0.10;0.10;;;;;;;;;;6243384;28;20022;-78
2024/01/30 11:59:42;;;;;;;0.17;0.17;;;;;;;;;;6241025;28;20040;-78
2024/01/30 12:02:42;;;;;;;0.10;0.10;;;;;;;;;;6243741;28;20032;-76
2024/01/30 12:05:43;;;;;;;0.10;0.10;;;;;;;;;;6240096;28;20133;-76
2024/01/30 12:08:54;;;;;;;0.10;0.10;;;;;;;;;;6240934;28;20037;-76
2024/01/30 12:11:54;;;;;;;0.10;0.10;;;;;;;;;;6240822;28;20503;-76
2024/01/30 12:14:55;;;;;;;0.10;0.10;;;;;;;;;;6241077;28;20057;-75
2024/01/30 12:18:03;;;;;;;0.10;0.10;;;;;;;;;;6237287;28;20022;-76
2024/01/30 12:21:04;;;;;;;0.10;0.10;;;;;;;;;;6241862;28;20122;-75
2024/01/30 12:24:04;;;;;;;0.10;0.10;;;;;;;;;;6240657;28;20045;-76
2024/01/30 12:27:05;;;;;;;0.10;0.10;;;;;;;;;;6241956;28;20022;-76
2024/01/30 12:30:13;;;;;;;0.10;0.10;;;;;;;;;;6241072;28;20022;-76
2024/01/30 12:33:20;;;;;;;0.10;0.10;;;;;;;;;;6235825;28;20379;-76
2024/01/30 12:36:21;;;;;;;0.20;0.20;;;;;;;;;;6239388;28;20484;-76
2024/01/30 12:39:21;;;;;;;0.17;0.17;;;;;;;;;;6241506;28;20079;-77
2024/01/30 12:42:22;;;;;;;0.20;0.20;;;;;;;;;;6241443;28;20025;-77
2024/01/30 12:45:22;;;;;;;0.10;0.10;;;;;;;;;;6242029;28;20029;-78
2024/01/30 12:48:22;;;;;;;0.10;0.10;;;;;;;;;;6241126;28;20387;-80
2024/01/30 12:51:23;;;;;;;0.17;0.17;;;;;;;;;;6241078;28;20023;-80
2024/01/30 12:54:23;;;;;;;0.10;0.10;;;;;;;;;;6238966;28;20047;-80
2024/01/30 12:57:24;;;;;;;0.10;0.10;;;;;;;;;;6240936;28;20037;-80
2024/01/30 13:00:24;;;;;;;0.20;0.20;;;;;;;;;;6241055;28;20590;-80
2024/01/30 13:03:24;;;;;;;0.10;0.10;;;;;;;;;;6240861;28;20025;-80
2024/01/30 13:06:24;;;;;;;0.10;0.10;;;;;;;;;;6240893;28;20013;-80
2024/01/30 13:09:25;;;;;;;0.10;0.10;;;;;;;;;;6223527;28;20479;-80
2024/01/30 13:12:25;;;;;;;0.10;0.10;;;;;;;;;;6234272;28;20029;-80
2024/01/30 13:15:25;;;;;;;0.10;0.10;;;;;;;;;;6248778;28;20459;-81
2024/01/30 13:18:26;;;;;;;0.10;0.10;;;;;;;;;;6246407;28;20037;-80
2024/01/30 13:21:26;;;;;;;0.10;0.10;;;;;;;;;;6245254;28;20029;-80
2024/01/30 13:24:26;;;;;;;0.20;0.20;;;;;;;;;;6227319;28;20033;-81
2024/01/30 13:27:27;;;;;;;0.10;0.10;;;;;;;;;;6245785;28;20018;-80
2024/01/30 13:30:27;;;;;;;0.10;0.10;;;;;;;;;;6245589;28;20508;-80
2024/01/30 13:33:27;;;;;;;0.10;0.10;;;;;;;;;;6241008;28;20053;-80
2024/01/30 13:36:28;;;;;;;0.10;0.10;;;;;;;;;;6245093;28;20025;-80
2024/01/30 13:39:29;;;;;;;0.10;0.10;;;;;;;;;;6245618;28;20590;-80
2024/01/30 13:42:29;;;;;;;0.10;0.10;;;;;;;;;;6223528;28;20499;-80
2024/01/30 13:45:30;;;;;;;0.10;0.10;;;;;;;;;;6242342;28;20448;-80
2024/01/30 13:48:31;;;;;;;0.10;0.10;;;;;;;;;;6244702;28;20034;-80
2024/01/30 13:51:31;;;;;;;0.10;0.10;;;;;;;;;;6245455;28;20587;-80
2024/01/30 13:54:32;;;;;;;0.10;0.10;;;;;;;;;;6225624;28;20049;-80
2024/01/30 13:57:35;;;;;;;0.10;0.10;;;;;;;;;;6243893;28;20113;-77
2024/01/30 14:00:36;;;;;;;0.10;0.10;;;;;;;;;;6249289;28;20033;-77
2024/01/30 14:03:36;;;;;;;0.10;0.10;;;;;;;;;;6245635;28;20021;-77
2024/01/30 14:06:36;;;;;;;0.10;0.10;;;;;;;;;;6242342;28;20427;-77
2024/01/30 14:09:37;;;;;;;0.10;0.10;;;;;;;;;;6244976;28;20045;-77
2024/01/30 14:12:37;;;;;;;0.10;0.10;;;;;;;;;;6245871;28;20053;-77
2024/01/30 14:15:37;;;;;;;0.10;0.10;;;;;;;;;;6242752;28;20060;-77
2024/01/30 14:18:37;;;;;;;0.10;0.10;;;;;;;;;;6243860;28;20443;-77
2024/01/30 14:21:37;;;;;;;0.10;0.10;;;;;;;;;;6243691;28;20065;-77
2024/01/30 14:24:38;;;;;;;0.10;0.10;;;;;;;;;;6242638;28;20124;-77
2024/01/30 14:27:38;;;;;;;0.10;0.10;;;;;;;;;;6242812;28;20025;-77
2024/01/30 14:30:38;;;;;;;0.10;0.10;;;;;;;;;;6242867;28;20160;-77
2024/01/30 14:33:39;;;;;;;0.10;0.10;;;;;;;;;;6245171;28;20120;-77
2024/01/30 14:36:39;;;;;;;0.10;0.10;;;;;;;;;;6244256;28;20048;-80
2024/01/30 14:39:40;;;;;;;0.10;0.10;;;;;;;;;;6244426;28;20083;-80
2024/01/30 14:42:41;;;;;;;0.10;0.10;;;;;;;;;;6223700;28;20037;-80
2024/01/30 14:45:42;;;;;;;0.10;0.10;;;;;;;;;;6244032;28;20055;-80
2024/01/30 14:48:43;;;;;;;0.10;0.10;;;;;;;;;;6244415;28;20029;-80
2024/01/30 14:51:43;;;;;;;0.10;0.10;;;;;;;;;;6243219;28;20029;-80
2024/01/30 14:54:43;;;;;;;0.10;0.10;;;;;;;;;;6237674;28;20119;-80
2024/01/30 14:57:45;;;;;;;0.10;0.10;;;;;;;;;;6238499;28;20025;-79
2024/01/30 15:00:45;;;;;;;0.20;0.20;;;;;;;;;;6235523;28;20518;-80
2024/01/30 15:03:46;;;;;;;0.10;0.10;;;;;;;;;;6242703;28;20344;-80
2024/01/30 15:06:48;;;;;;;0.10;0.10;;;;;;;;;;6237045;28;20049;-77
2024/01/30 15:09:48;;;;;;;0.20;0.20;;;;;;;;;;6242919;28;20032;-78
2024/01/30 15:12:49;;;;;;;0.20;0.20;;;;;;;;;;6242238;28;20021;-77
2024/01/30 15:15:49;;;;;;;0.10;0.10;;;;;;;;;;6250332;28;20060;-77
2024/01/30 15:18:49;;;;;;;0.20;0.20;;;;;;;;;;6230825;28;20029;-78
2024/01/30 15:21:50;;;;;;;0.20;0.20;;;;;;;;;;6226158;28;20505;-77
2024/01/30 15:24:50;;;;;;;0.20;0.20;;;;;;;;;;6242169;28;20040;-77
2024/01/30 15:27:50;;;;;;;0.20;0.20;;;;;;;;;;6239409;28;20017;-77
2024/01/30 15:30:51;;;;;;;0.10;0.10;;;;;;;;;;6242704;28;20028;-76
2024/01/30 15:33:51;;;;;;;0.20;0.20;;;;;;;;;;6229021;28;20169;-76
2024/01/30 15:36:52;;;;;;;0.10;0.10;;;;;;;;;;6236063;28;20026;-76
2024/01/30 15:39:52;;;;;;;0.20;0.20;;;;;;;;;;6223658;28;20030;-77
2024/01/30 15:42:52;;;;;;;0.20;0.20;;;;;;;;;;6240286;28;20037;-77
2024/01/30 15:45:53;;;;;;;0.10;0.10;;;;;;;;;;6245027;28;20107;-79
2024/01/30 15:48:53;;;;;;;0.20;0.20;;;;;;;;;;6236255;28;20060;-79
2024/01/30 15:51:54;;;;;;;0.20;0.20;;;;;;;;;;6241904;28;20060;-79
2024/01/30 15:54:54;;;;;;;0.20;0.20;;;;;;;;;;6240467;28;20128;-79
2024/01/30 15:57:54;;;;;;;0.20;0.20;;;;;;;;;;6241441;28;20025;-79
2024/01/30 16:00:54;;;;;;;0.20;0.20;;;;;;;;;;6243364;28;20025;-78
2024/01/30 16:03:54;;;;;;;0.20;0.20;;;;;;;;;;6241074;28;20052;-78
2024/01/30 16:06:55;;;;;;;0.10;0.10;;;;;;;;;;6241575;28;20029;-78
2024/01/30 16:09:55;;;;;;;0.20;0.20;;;;;;;;;;6241279;28;20490;-78
2024/01/30 16:12:55;;;;;;;0.20;0.20;;;;;;;;;;6239908;28;20479;-78
2024/01/30 16:15:56;;;;;;;0.20;0.20;;;;;;;;;;6250811;28;20017;-78
2024/01/30 16:18:56;;;;;;;0.20;0.20;;;;;;;;;;6243048;28;20025;-78
2024/01/30 16:21:56;;;;;;;0.20;0.20;;;;;;;;;;6242661;28;20036;-78
2024/01/30 16:24:56;;;;;;;0.20;0.20;;;;;;;;;;6241141;28;20503;-77
2024/01/30 16:27:57;;;;;;;0.20;0.20;;;;;;;;;;6234109;28;20112;-77
2024/01/30 16:30:57;;;;;;;0.20;0.20;;;;;;;;;;6242125;28;20056;-77
2024/01/30 16:33:59;;;;;;;0.20;0.20;;;;;;;;;;6241749;28;20057;-77
2024/01/30 16:37:00;;;;;;;0.20;0.20;;;;;;;;;;6242069;28;20029;-77
2024/01/30 16:40:00;;;;;;;0.20;0.20;;;;;;;;;;6241761;28;20048;-77
2024/01/30 16:43:00;;;;;;;0.20;0.20;;;;;;;;;;6242512;28;20434;-77
2024/01/30 16:46:00;;;;;;;0.20;0.20;;;;;;;;;;6242230;28;20862;-77
2024/01/30 16:49:00;;;;;;;0.20;0.20;;;;;;;;;;6224124;28;20411;-78
2024/01/30 16:52:04;;;;;;;0.20;0.20;;;;;;;;;;6241709;28;20014;-79
2024/01/30 16:55:05;;;;;;;0.20;0.20;;;;;;;;;;6240164;28;20017;-78
2024/01/30 16:58:05;;;;;;;0.20;0.20;;;;;;;;;;6242047;28;20033;-78
2024/01/30 17:01:05;;;;;;;0.20;0.20;;;;;;;;;;6241039;28;20558;-78
2024/01/30 17:04:05;;;;;;;0.20;0.20;;;;;;;;;;6242767;28;20066;-78
2024/01/30 17:07:06;;;;;;;0.20;0.20;;;;;;;;;;6238785;28;20045;-78
2024/01/30 17:10:06;;;;;;;0.20;0.20;;;;;;;;;;6216850;28;20072;-78
2024/01/30 17:13:06;;;;;;;0.20;0.20;;;;;;;;;;6227972;28;20017;-78
2024/01/30 17:16:07;;;;;;;0.20;0.20;;;;;;;;;;6214250;28;20160;-77
2024/01/30 17:19:07;;;;;;;0.20;0.20;;;;;;;;;;6199798;28;20022;-77
2024/01/30 17:22:09;;;;;;;0.20;0.20;;;;;;;;;;6225935;28;20136;-77
2024/01/30 17:25:09;;;;;;;0.20;0.20;;;;;;;;;;6223789;28;20033;-77
2024/01/30 17:28:09;;;;;;;0.20;0.20;;;;;;;;;;6217055;28;20075;-77
2024/01/30 17:31:10;;;;;;;0.20;0.20;;;;;;;;;;6215822;28;20018;-77
2024/01/30 17:34:11;;;;;;;0.20;0.20;;;;;;;;;;6212436;28;20061;-77
2024/01/30 17:37:11;;;;;;;0.20;0.20;;;;;;;;;;6194610;28;20022;-77
2024/01/30 17:40:11;;;;;;;0.20;0.20;;;;;;;;;;6214528;28;20076;-78
2024/01/30 17:43:13;;;;;;;0.20;0.20;;;;;;;;;;6212079;28;20113;-77
2024/01/30 17:46:14;;;;;;;0.20;0.20;;;;;;;;;;6197285;28;20030;-77
2024/01/30 17:49:14;;;;;;;0.30;0.30;;;;;;;;;;6218487;28;20028;-77
2024/01/30 17:52:16;;;;;;;0.23;0.23;;;;;;;;;;6223837;28;20022;-77
2024/01/30 17:55:16;;;;;;;0.20;0.20;;;;;;;;;;6207457;28;20412;-77
2024/01/30 17:58:16;;;;;;;0.20;0.20;;;;;;;;;;6210965;28;20036;-77
2024/01/30 18:01:16;;;;;;;0.20;0.20;;;;;;;;;;6217555;28;20022;-77
2024/01/30 18:04:17;;;;;;;0.20;0.20;;;;;;;;;;6218292;28;20073;-77
2024/01/30 18:07:18;;;;;;;0.20;0.20;;;;;;;;;;6221324;28;20129;-77